Andromeda Spirit — 3ELH2 — position and weather

sailwx.info

Track history (hours):
 
Tides and Currents Weather Stations Pressure Air Temp Water Temp Dewpoint Dewpoint Depression Visibility Wind Speed Wind Dir Waves Ship Positions

Andromeda Spirit

Last reported at 2018-Jul-09 13:12 UTC. Time now 2018-Jul-16 06:49 UTC.
Position N 33°42' E 134°59'.

Length 180 m; draft 8.7 m.

Type: Cargo ship. MMSI: 372945000.

Date/timePositionNaut miles runAvg speedWind from/ knotsBaromVisibWave heightAir tempDewpointWater temp
2018-Jul-09 13:12N 33°42' E 134°59'316.2
2018-Jul-09 12:59N 33°46' E 134°57'917.5
2018-Jul-09 12:27N 33°55' E 134°55'817.3
2018-Jul-09 12:00N 34°03' E 134°56'815.9
2018-Jul-09 11:31N 34°10' E 134°57'510.9
2018-Jul-09 11:00N 34°16' E 134°58'815.3
2018-Jul-09 10:31N 34°23' E 135°01'815.5
2018-Jul-09 10:00N 34°30' E 135°05'4 8.2
2018-Jul-09 09:30N 34°34' E 135°07'611.5
2018-Jul-09 09:00N 34°37' E 135°01'713.3
2018-Jul-09 08:29N 34°38' E 134°52'4 9.2
2018-Jul-09 08:00N 34°41' E 134°49'2 0.3
2018-Jul-09 00:39N 34°43' E 134°51'1 4.6
2018-Jul-09 00:30N 34°42' E 134°50'2 3.9
2018-Jul-08 23:56N 34°40' E 134°49'0 0.1
2018-Jul-08 23:29N 34°40' E 134°49'0 0.0
2018-Jul-08 22:59N 34°40' E 134°49'0 0.0
2018-Jul-08 22:28N 34°40' E 134°49'0 0.0
2018-Jul-08 21:47N 34°40' E 134°49'0 0.0
2018-Jul-08 21:29N 34°40' E 134°49'0 0.0
2018-Jul-08 20:59N 34°40' E 134°49'0 0.0
2018-Jul-08 20:29N 34°40' E 134°49'0 0.0
2018-Jul-08 19:59N 34°40' E 134°49'0 0.0
2018-Jul-08 19:29N 34°40' E 134°49'0 0.0
2018-Jul-08 18:59N 34°40' E 134°49'0 0.0
2018-Jul-08 18:22N 34°40' E 134°49'0 0.0
2018-Jul-08 17:23N 34°40' E 134°49'0 0.0
2018-Jul-08 16:59N 34°40' E 134°49'0 0.0
2018-Jul-08 16:22N 34°40' E 134°49'0 0.0
2018-Jul-08 15:59N 34°40' E 134°49'0 0.0
2018-Jul-08 15:29N 34°40' E 134°49'0 0.0
2018-Jul-08 14:58N 34°40' E 134°49'0 0.0
2018-Jul-08 14:29N 34°40' E 134°49'0 0.0
2018-Jul-08 13:59N 34°40' E 134°49'0 0.0
2018-Jul-08 13:28N 34°40' E 134°49'0 0.0
2018-Jul-08 12:59N 34°40' E 134°49'0 0.0
2018-Jul-08 12:26N 34°40' E 134°49'0 0.0
2018-Jul-08 11:53N 34°40' E 134°49'0 0.0
2018-Jul-08 11:29N 34°40' E 134°49'0 0.0
2018-Jul-08 10:53N 34°40' E 134°49'0 0.0
2018-Jul-08 10:28N 34°40' E 134°49'0 0.0
2018-Jul-08 09:56N 34°40' E 134°49'0 0.0
2018-Jul-08 09:29N 34°40' E 134°49'0 0.0
2018-Jul-08 08:59N 34°40' E 134°49'0 0.0
2018-Jul-08 08:29N 34°40' E 134°49'0 0.0
2018-Jul-08 08:00N 34°40' E 134°49'0 0.0
2018-Jul-08 07:30N 34°40' E 134°49'0 0.0
2018-Jul-08 07:01N 34°40' E 134°49'0 0.0
2018-Jul-08 06:30N 34°40' E 134°49'0 0.1
2018-Jul-08 06:00N 34°40' E 134°49'0 0.1
2018-Jul-08 05:30N 34°40' E 134°49'0 0.0
2018-Jul-08 05:00N 34°40' E 134°49'0 0.1
2018-Jul-08 04:30N 34°40' E 134°49'0 0.0
2018-Jul-08 03:59N 34°40' E 134°49'0 0.1
2018-Jul-08 03:30N 34°40' E 134°49'1 2.3
2018-Jul-08 03:00N 34°39' E 134°48'510.8
2018-Jul-08 02:30N 34°35' E 134°43'613.1
2018-Jul-08 02:00N 34°35' E 134°51'815.3
2018-Jul-08 01:30N 34°38' E 134°60'612.2
2018-Jul-08 01:00N 34°35' E 135°06'3 5.8
2018-Jul-08 00:30N 34°33' E 135°09'510.9
2018-Jul-08 00:01N 34°28' E 135°07'816.8
2018-Jul-07 23:30N 34°21' E 135°01'714.2
2018-Jul-07 23:00N 34°14' E 134°59'510.9
2018-Jul-07 22:30N 34°08' E 134°59'4 9.0
2018-Jul-07 22:00N 34°04' E 134°58'4 7.4
2018-Jul-07 21:30N 34°00' E 134°58'4 8.7
2018-Jul-07 21:00N 33°56' E 134°58'4 8.8
2018-Jul-07 20:30N 33°51' E 134°58'5 9.2
2018-Jul-07 20:00N 33°47' E 134°58'  
Track history (hours):
 
Tides and Currents Weather Stations Pressure Air Temp Water Temp Dewpoint Dewpoint Depression Visibility Wind Speed Wind Dir Waves Ship Positions

Andromeda Spirit

Last reported at 2018-Jul-09 13:12 UTC. Time now 2018-Jul-16 06:49 UTC.
Position N 33°42' E 134°59'.

Length 180 m; draft 8.7 m.

Type: Cargo ship. MMSI: 372945000.

Date/timePositionNaut miles runAvg speedWind from/ knotsBaromVisibWave heightAir tempDewpointWater temp
2018-Jul-09 13:12N 33°42' E 134°59'316.2
2018-Jul-09 12:59N 33°46' E 134°57'917.5
2018-Jul-09 12:27N 33°55' E 134°55'817.3
2018-Jul-09 12:00N 34°03' E 134°56'815.9
2018-Jul-09 11:31N 34°10' E 134°57'510.9
2018-Jul-09 11:00N 34°16' E 134°58'815.3
2018-Jul-09 10:31N 34°23' E 135°01'815.5
2018-Jul-09 10:00N 34°30' E 135°05'4 8.2
2018-Jul-09 09:30N 34°34' E 135°07'611.5
2018-Jul-09 09:00N 34°37' E 135°01'713.3
2018-Jul-09 08:29N 34°38' E 134°52'4 9.2
2018-Jul-09 08:00N 34°41' E 134°49'2 0.3
2018-Jul-09 00:39N 34°43' E 134°51'1 4.6
2018-Jul-09 00:30N 34°42' E 134°50'2 3.9
2018-Jul-08 23:56N 34°40' E 134°49'0 0.1
2018-Jul-08 23:29N 34°40' E 134°49'0 0.0
2018-Jul-08 22:59N 34°40' E 134°49'0 0.0
2018-Jul-08 22:28N 34°40' E 134°49'0 0.0
2018-Jul-08 21:47N 34°40' E 134°49'0 0.0
2018-Jul-08 21:29N 34°40' E 134°49'0 0.0
2018-Jul-08 20:59N 34°40' E 134°49'0 0.0
2018-Jul-08 20:29N 34°40' E 134°49'0 0.0
2018-Jul-08 19:59N 34°40' E 134°49'0 0.0
2018-Jul-08 19:29N 34°40' E 134°49'0 0.0
2018-Jul-08 18:59N 34°40' E 134°49'0 0.0
2018-Jul-08 18:22N 34°40' E 134°49'0 0.0
2018-Jul-08 17:23N 34°40' E 134°49'0 0.0
2018-Jul-08 16:59N 34°40' E 134°49'0 0.0
2018-Jul-08 16:22N 34°40' E 134°49'0 0.0
2018-Jul-08 15:59N 34°40' E 134°49'0 0.0
2018-Jul-08 15:29N 34°40' E 134°49'0 0.0
2018-Jul-08 14:58N 34°40' E 134°49'0 0.0
2018-Jul-08 14:29N 34°40' E 134°49'0 0.0
2018-Jul-08 13:59N 34°40' E 134°49'0 0.0
2018-Jul-08 13:28N 34°40' E 134°49'0 0.0
2018-Jul-08 12:59N 34°40' E 134°49'0 0.0
2018-Jul-08 12:26N 34°40' E 134°49'0 0.0
2018-Jul-08 11:53N 34°40' E 134°49'0 0.0
2018-Jul-08 11:29N 34°40' E 134°49'0 0.0
2018-Jul-08 10:53N 34°40' E 134°49'0 0.0
2018-Jul-08 10:28N 34°40' E 134°49'0 0.0
2018-Jul-08 09:56N 34°40' E 134°49'0 0.0
2018-Jul-08 09:29N 34°40' E 134°49'0 0.0
2018-Jul-08 08:59N 34°40' E 134°49'0 0.0
2018-Jul-08 08:29N 34°40' E 134°49'0 0.0
2018-Jul-08 08:00N 34°40' E 134°49'0 0.0
2018-Jul-08 07:30N 34°40' E 134°49'0 0.0
2018-Jul-08 07:01N 34°40' E 134°49'0 0.0
2018-Jul-08 06:30N 34°40' E 134°49'0 0.1
2018-Jul-08 06:00N 34°40' E 134°49'0 0.1
2018-Jul-08 05:30N 34°40' E 134°49'0 0.0
2018-Jul-08 05:00N 34°40' E 134°49'0 0.1
2018-Jul-08 04:30N 34°40' E 134°49'0 0.0
2018-Jul-08 03:59N 34°40' E 134°49'0 0.1
2018-Jul-08 03:30N 34°40' E 134°49'1 2.3
2018-Jul-08 03:00N 34°39' E 134°48'510.8
2018-Jul-08 02:30N 34°35' E 134°43'613.1
2018-Jul-08 02:00N 34°35' E 134°51'815.3
2018-Jul-08 01:30N 34°38' E 134°60'612.2
2018-Jul-08 01:00N 34°35' E 135°06'3 5.8
2018-Jul-08 00:30N 34°33' E 135°09'510.9
2018-Jul-08 00:01N 34°28' E 135°07'816.8
2018-Jul-07 23:30N 34°21' E 135°01'714.2
2018-Jul-07 23:00N 34°14' E 134°59'510.9
2018-Jul-07 22:30N 34°08' E 134°59'4 9.0
2018-Jul-07 22:00N 34°04' E 134°58'4 7.4
2018-Jul-07 21:30N 34°00' E 134°58'4 8.7
2018-Jul-07 21:00N 33°56' E 134°58'4 8.8
2018-Jul-07 20:30N 33°51' E 134°58'5 9.2
2018-Jul-07 20:00N 33°47' E 134°58'  

Dump ship's entire track history